Time;durP1;ratioP1;P1;durP2;ratioP2;P2;SDS_P1;SDS_P2;PMS_P1;PMS_P2;Temp;Humidity;BMP_temperature;BMP_pressure;BME280_temperature;BME280_humidity;BME280_pressure;Samples;Min_cycle;Max_cycle;Signal;HPM_P1;HPM_P2
2021/04/04 00:00:24;;;;;;;;;;;;;;;21.64;32.90;102820.81;2519355;34;115151;-58
2021/04/04 00:01:55;;;;;;;;;;;;;;;21.61;32.65;102820.50;2517484;34;115298;-58
2021/04/04 00:03:27;;;;;;;;;;;;;;;21.64;32.45;102829.25;2518221;34;115531;-57
2021/04/04 00:04:59;;;;;;;;;;;;;;;21.57;32.92;102827.78;2519405;34;114969;-56
2021/04/04 00:06:31;;;;;;;;;;;;;;;21.60;32.84;102827.25;2521442;34;115249;-57
2021/04/04 00:08:03;;;;;;;;;;;;;;;21.62;33.02;102827.81;2517647;34;115807;-59
2021/04/04 00:09:34;;;;;;;;;;;;;;;21.59;33.29;102823.56;2516881;34;115434;-58
2021/04/04 00:11:05;;;;;;;;;;;;;;;21.58;33.36;102835.09;2518961;34;115727;-59
2021/04/04 00:12:37;;;;;;;;;;;;;;;21.56;32.99;102828.91;2518201;34;115555;-59
2021/04/04 00:14:08;;;;;;;;;;;;;;;21.56;33.15;102826.09;2517670;34;115731;-58
2021/04/04 00:15:41;;;;;;;;;;;;;;;21.53;33.24;102819.00;2517524;34;115764;-59
2021/04/04 00:17:13;;;;;;;;;;;;;;;21.53;33.02;102816.19;2517487;34;115647;-57
2021/04/04 00:18:45;;;;;;;;;;;;;;;21.50;33.22;102811.13;2517498;34;115755;-59
2021/04/04 00:20:17;;;;;;;;;;;;;;;21.47;33.17;102805.19;2518839;34;115773;-59
2021/04/04 00:21:49;;;;;;;;;;;;;;;21.47;33.40;102806.06;2516706;34;115726;-58
2021/04/04 00:23:21;;;;;;;;;;;;;;;21.47;33.53;102810.81;2517991;34;115958;-59
2021/04/04 00:24:53;;;;;;;;;;;;;;;21.45;33.69;102816.72;2517736;34;115695;-58
2021/04/04 00:26:24;;;;;;;;;;;;;;;21.43;33.49;102816.16;2517627;34;115655;-59
2021/04/04 00:27:56;;;;;;;;;;;;;;;21.41;33.26;102818.38;2520557;34;115632;-59
2021/04/04 00:29:27;;;;;;;;;;;;;;;21.41;33.59;102809.94;2517901;34;114224;-59
2021/04/04 00:31:00;;;;;;;;;;;;;;;21.40;33.50;102799.78;2517355;34;113586;-57
2021/04/04 00:32:31;;;;;;;;;;;;;;;21.39;33.50;102802.91;2516847;34;113556;-58
2021/04/04 00:34:04;;;;;;;;;;;;;;;21.38;33.50;102804.84;2518681;34;113619;-58
2021/04/04 00:35:36;;;;;;;;;;;;;;;21.36;33.82;102806.22;2517966;34;113880;-58
2021/04/04 00:37:07;;;;;;;;;;;;;;;21.37;33.49;102807.94;2518603;34;113488;-58
2021/04/04 00:38:38;;;;;;;;;;;;;;;21.34;33.60;102808.47;2517516;34;113683;-58
2021/04/04 00:40:10;;;;;;;;;;;;;;;21.32;33.61;102814.34;2518188;34;113508;-58
2021/04/04 00:41:42;;;;;;;;;;;;;;;21.32;33.88;102800.28;2517550;34;113745;-57
2021/04/04 00:43:13;;;;;;;;;;;;;;;21.30;33.74;102813.78;2517391;34;114376;-63
2021/04/04 00:44:45;;;;;;;;;;;;;;;21.30;33.56;102808.16;2518558;34;113572;-58
2021/04/04 00:46:16;;;;;;;;;;;;;;;21.28;33.85;102802.81;2517798;34;114107;-59
2021/04/04 00:47:48;;;;;;;;;;;;;;;21.29;33.69;102803.66;2518880;34;113596;-59
2021/04/04 00:49:19;;;;;;;;;;;;;;;21.28;33.88;102805.63;2520450;34;113573;-59
2021/04/04 00:50:51;;;;;;;;;;;;;;;21.29;33.79;102803.66;2518946;34;115232;-59
2021/04/04 00:52:24;;;;;;;;;;;;;;;21.27;34.08;102808.69;2518078;34;115211;-58
2021/04/04 00:53:55;;;;;;;;;;;;;;;21.26;33.94;102802.22;2518574;34;114755;-58
2021/04/04 00:55:27;;;;;;;;;;;;;;;21.34;34.39;102803.69;2518009;34;115026;-59
2021/04/04 00:56:58;;;;;;;;;;;;;;;21.36;34.00;102801.44;2519058;34;114042;-58
2021/04/04 00:58:30;;;;;;;;;;;;;;;21.30;34.52;102809.00;2518320;34;115024;-59
2021/04/04 01:00:03;;;;;;;;;;;;;;;21.31;34.76;102807.03;2518958;34;115052;-58
2021/04/04 01:01:36;;;;;;;;;;;;;;;21.30;34.48;102803.38;2522641;34;115073;-58
2021/04/04 01:03:07;;;;;;;;;;;;;;;21.29;34.52;102803.66;2526954;34;115065;-58
2021/04/04 01:04:40;;;;;;;;;;;;;;;21.28;34.80;102804.78;2526958;34;114989;-59
2021/04/04 01:06:12;;;;;;;;;;;;;;;21.26;34.74;102793.78;2526379;34;115014;-58
2021/04/04 01:07:46;;;;;;;;;;;;;;;21.26;34.47;102798.56;2527081;34;115305;-57
2021/04/04 01:09:20;;;;;;;;;;;;;;;21.24;34.80;102800.81;2526093;34;114075;-59
2021/04/04 01:10:52;;;;;;;;;;;;;;;21.22;34.95;102798.25;2521136;34;115166;-58
2021/04/04 01:12:26;;;;;;;;;;;;;;;21.23;35.02;102794.31;2523533;34;115827;-59
2021/04/04 01:14:02;;;;;;;;;;;;;;;21.23;35.04;102799.94;2517832;34;115593;-58
2021/04/04 01:15:37;;;;;;;;;;;;;;;21.23;34.94;102790.66;2517000;34;115601;-58
2021/04/04 01:17:10;;;;;;;;;;;;;;;21.22;34.99;102794.59;2515194;34;116201;-59
2021/04/04 01:18:43;;;;;;;;;;;;;;;21.22;34.99;102797.41;2523206;34;116758;-57
2021/04/04 01:20:17;;;;;;;;;;;;;;;21.20;35.49;102794.88;2526443;34;115679;-59
2021/04/04 01:21:52;;;;;;;;;;;;;;;21.21;35.30;102790.91;2526183;34;115706;-59
2021/04/04 01:23:27;;;;;;;;;;;;;;;21.20;35.50;102788.41;2526808;34;115962;-58
2021/04/04 01:25:06;;;;;;;;;;;;;;;21.18;35.46;102788.66;2527293;34;115831;-58
2021/04/04 01:26:46;;;;;;;;;;;;;;;21.19;35.31;102792.31;2526435;34;115924;-58
2021/04/04 01:28:21;;;;;;;;;;;;;;;21.17;35.20;102786.94;2527499;34;116397;-59
2021/04/04 01:29:54;;;;;;;;;;;;;;;21.14;35.47;102787.50;2526442;34;116672;-59
2021/04/04 01:31:26;;;;;;;;;;;;;;;21.11;35.46;102784.34;2527273;34;115636;-57
2021/04/04 01:32:58;;;;;;;;;;;;;;;21.15;35.73;102779.91;2516282;34;115743;-58
2021/04/04 01:34:31;;;;;;;;;;;;;;;21.14;35.33;102781.88;2526512;34;115626;-57
2021/04/04 01:36:04;;;;;;;;;;;;;;;21.15;35.68;102791.16;2517138;34;113695;-58
2021/04/04 01:37:36;;;;;;;;;;;;;;;21.13;35.82;102785.81;2524690;34;113663;-57
2021/04/04 01:39:08;;;;;;;;;;;;;;;21.12;35.62;102778.44;2516341;34;113757;-58
2021/04/04 01:40:41;;;;;;;;;;;;;;;21.09;35.98;102781.81;2515539;34;113729;-59
2021/04/04 01:42:14;;;;;;;;;;;;;;;21.12;35.91;102780.44;2514610;34;113625;-58
2021/04/04 01:43:48;;;;;;;;;;;;;;;21.11;35.77;102784.34;2523703;34;113615;-57
2021/04/04 01:45:23;;;;;;;;;;;;;;;21.11;35.98;102787.16;2526288;34;113357;-57
2021/04/04 01:46:55;;;;;;;;;;;;;;;21.10;36.19;102780.69;2527162;34;113523;-58
2021/04/04 01:48:26;;;;;;;;;;;;;;;21.10;36.01;102774.22;2516737;34;113482;-58
2021/04/04 01:50:00;;;;;;;;;;;;;;;21.07;35.94;102781.25;2517680;34;113616;-58
2021/04/04 01:51:32;;;;;;;;;;;;;;;21.08;35.88;102782.06;2523472;34;113951;-58
2021/04/04 01:53:05;;;;;;;;;;;;;;;21.06;35.95;102771.09;2517712;34;113609;-57
2021/04/04 01:54:37;;;;;;;;;;;;;;;21.06;36.28;102779.53;2523342;34;113796;-58
2021/04/04 01:56:08;;;;;;;;;;;;;;;21.06;36.21;102770.25;2520802;34;113696;-58
2021/04/04 01:57:41;;;;;;;;;;;;;;;21.04;36.39;102776.13;2516322;34;115415;-58
2021/04/04 01:59:14;;;;;;;;;;;;;;;21.06;36.30;102773.91;2524263;34;114986;-58
2021/04/04 02:00:46;;;;;;;;;;;;;;;21.02;36.06;102769.09;2526310;34;114624;-58
2021/04/04 02:02:17;;;;;;;;;;;;;;;21.04;36.27;102773.31;2526688;34;114945;-59
2021/04/04 02:03:49;;;;;;;;;;;;;;;21.02;36.18;102778.38;2525978;34;115686;-57
2021/04/04 02:05:23;;;;;;;;;;;;;;;21.01;36.09;102773.88;2526945;34;114996;-58
2021/04/04 02:06:54;;;;;;;;;;;;;;;21.00;36.16;102768.50;2508634;34;115017;-58
2021/04/04 02:08:25;;;;;;;;;;;;;;;21.00;36.29;102771.31;2521431;34;115111;-57
2021/04/04 02:09:58;;;;;;;;;;;;;;;21.00;36.21;102768.50;2526255;34;113801;-57
2021/04/04 02:11:30;;;;;;;;;;;;;;;20.99;36.36;102767.66;2517648;34;115122;-57
2021/04/04 02:13:03;;;;;;;;;;;;;;;20.99;36.58;102761.19;2523471;34;114968;-58
2021/04/04 02:14:35;;;;;;;;;;;;;;;21.00;36.58;102754.44;2527130;34;114964;-59
2021/04/04 02:16:07;;;;;;;;;;;;;;;20.99;36.71;102761.19;2526283;34;115018;-58
2021/04/04 02:17:39;;;;;;;;;;;;;;;20.98;36.54;102765.13;2512304;34;114123;-57
2021/04/04 02:19:12;;;;;;;;;;;;;;;20.96;36.58;102756.94;2511552;34;115672;-58
2021/04/04 02:20:46;;;;;;;;;;;;;;;20.98;36.72;102757.53;2523874;34;114671;-59
2021/04/04 02:22:18;;;;;;;;;;;;;;;20.96;36.60;102747.66;2525912;34;115651;-58
2021/04/04 02:23:50;;;;;;;;;;;;;;;20.95;36.63;102749.63;2517078;34;115658;-59
2021/04/04 02:25:21;;;;;;;;;;;;;;;20.95;36.43;102749.63;2524025;34;116383;-58
2021/04/04 02:26:53;;;;;;;;;;;;;;;20.92;36.71;102750.19;2526458;34;115657;-57
2021/04/04 02:28:25;;;;;;;;;;;;;;;20.92;36.54;102746.50;2518168;34;115654;-59
2021/04/04 02:29:56;;;;;;;;;;;;;;;20.90;36.66;102743.97;2516847;34;115603;-58
2021/04/04 02:31:31;;;;;;;;;;;;;;;20.90;36.56;102740.31;2515219;34;114826;-58
2021/04/04 02:33:10;;;;;;;;;;;;;;;20.86;36.62;102737.19;2523376;34;115565;-59
2021/04/04 02:34:44;;;;;;;;;;;;;;;20.89;36.67;102741.44;2526941;34;115627;-58
2021/04/04 02:36:15;;;;;;;;;;;;;;;20.90;36.71;102737.50;2526552;34;115424;-57
2021/04/04 02:37:47;;;;;;;;;;;;;;;20.88;36.76;102734.13;2517898;34;115955;-59
2021/04/04 02:39:26;;;;;;;;;;;;;;;20.87;36.83;102738.88;2526065;34;116162;-59
2021/04/04 02:40:59;;;;;;;;;;;;;;;20.88;36.68;102734.13;2527247;34;113621;-59
2021/04/04 02:42:31;;;;;;;;;;;;;;;20.85;36.98;102741.09;2525716;34;113488;-58
2021/04/04 02:44:04;;;;;;;;;;;;;;;20.87;36.56;102730.47;2526486;34;113528;-58
2021/04/04 02:45:36;;;;;;;;;;;;;;;20.84;36.88;102726.22;2528005;34;113974;-58
2021/04/04 02:47:11;;;;;;;;;;;;;;;20.84;37.22;102731.84;2526803;34;113461;-59
2021/04/04 02:48:44;;;;;;;;;;;;;;;20.84;37.11;102736.63;2517937;34;113751;-58
2021/04/04 02:50:17;;;;;;;;;;;;;;;20.82;36.93;102734.06;2523859;34;113648;-59
2021/04/04 02:51:51;;;;;;;;;;;;;;;20.79;36.97;102731.81;2527851;34;113510;-59
2021/04/04 02:53:23;;;;;;;;;;;;;;;20.81;37.07;102735.19;2527007;34;113699;-58
2021/04/04 02:54:56;;;;;;;;;;;;;;;20.80;37.12;102725.03;2517901;34;113935;-58
2021/04/04 02:56:29;;;;;;;;;;;;;;;20.80;37.24;102736.28;2517104;34;113656;-59
2021/04/04 02:58:03;;;;;;;;;;;;;;;20.79;37.19;102731.81;2524500;34;114337;-58
2021/04/04 02:59:38;;;;;;;;;;;;;;;20.78;37.13;102735.72;2526782;34;114152;-59
2021/04/04 03:01:10;;;;;;;;;;;;;;;20.79;37.17;102737.41;2527585;34;113955;-57
2021/04/04 03:02:42;;;;;;;;;;;;;;;20.78;37.36;102730.09;2529320;34;113597;-57
2021/04/04 03:04:15;;;;;;;;;;;;;;;20.77;37.32;102735.97;2516513;34;115351;-59
2021/04/04 03:05:47;;;;;;;;;;;;;;;20.76;37.28;102731.47;2524965;34;115812;-58
2021/04/04 03:07:22;;;;;;;;;;;;;;;20.75;37.21;102733.47;2526597;34;114980;-57
2021/04/04 03:08:54;;;;;;;;;;;;;;;20.76;37.51;102732.31;2517861;34;115167;-58
2021/04/04 03:10:25;;;;;;;;;;;;;;;20.76;37.70;102737.09;2523827;34;114885;-58
2021/04/04 03:11:57;;;;;;;;;;;;;;;20.75;37.59;102732.59;2527345;34;115084;-58
2021/04/04 03:13:28;;;;;;;;;;;;;;;20.74;37.42;102728.94;2526731;34;115097;-59
2021/04/04 03:15:01;;;;;;;;;;;;;;;20.74;37.38;102728.94;2527590;34;115535;-58
2021/04/04 03:16:34;;;;;;;;;;;;;;;20.73;37.44;102727.25;2526533;34;115076;-58
2021/04/04 03:18:05;;;;;;;;;;;;;;;20.75;37.23;102732.59;2518027;34;115158;-58
2021/04/04 03:19:39;;;;;;;;;;;;;;;20.75;37.40;102729.78;2514277;34;114982;-57
2021/04/04 03:21:11;;;;;;;;;;;;;;;20.74;37.53;102730.91;2524726;34;115097;-58
2021/04/04 03:22:44;;;;;;;;;;;;;;;20.72;37.54;102736.78;2526419;34;116003;-58
2021/04/04 03:24:16;;;;;;;;;;;;;;;20.68;37.76;102732.81;2520510;34;115049;-58
2021/04/04 03:25:49;;;;;;;;;;;;;;;20.69;37.76;102734.50;2515651;34;116512;-58
2021/04/04 03:27:22;;;;;;;;;;;;;;;20.71;37.58;102723.03;2514883;34;115750;-57
2021/04/04 03:28:54;;;;;;;;;;;;;;;20.69;37.45;102723.28;2516086;34;115651;-57
2021/04/04 03:32:01;;;;;;;;;;;;;;;20.70;37.42;102727.78;2515682;34;116123;-58
2021/04/04 03:33:34;;;;;;;;;;;;;;;20.68;37.70;102730.00;2514805;34;115543;-57
2021/04/04 03:35:07;;;;;;;;;;;;;;;20.69;37.44;102720.47;2523819;34;116021;-57
2021/04/04 03:36:39;;;;;;;;;;;;;;;20.69;37.34;102734.50;2516713;34;115456;-58
2021/04/04 03:38:11;;;;;;;;;;;;;;;20.67;37.81;102733.09;2524418;34;116029;-57
2021/04/04 03:39:44;;;;;;;;;;;;;;;20.70;37.53;102733.41;2517426;34;115674;-58
2021/04/04 03:41:15;;;;;;;;;;;;;;;20.68;37.73;102732.81;2518352;34;115635;-58
2021/04/04 03:42:47;;;;;;;;;;;;;;;20.68;37.48;102737.56;2514674;34;115739;-57
2021/04/04 03:44:20;;;;;;;;;;;;;;;20.65;37.90;102738.13;2524003;34;115704;-57
2021/04/04 03:45:53;;;;;;;;;;;;;;;20.63;37.80;102735.56;2520700;34;115144;-57
2021/04/04 03:47:25;;;;;;;;;;;;;;;20.62;37.89;102739.50;2523777;34;113597;-57
2021/04/04 03:48:58;;;;;;;;;;;;;;;20.59;38.33;102731.59;2527529;34;113803;-59
2021/04/04 03:50:32;;;;;;;;;;;;;;;20.62;38.32;102739.50;2517168;34;113746;-59
2021/04/04 03:52:04;;;;;;;;;;;;;;;20.60;38.34;102733.28;2524739;34;113489;-59
2021/04/04 03:53:38;;;;;;;;;;;;;;;20.59;38.05;102734.41;2526826;34;113988;-57
2021/04/04 03:55:10;;;;;;;;;;;;;;;20.58;37.94;102734.69;2527331;34;113517;-58
2021/04/04 03:56:45;;;;;;;;;;;;;;;20.61;38.30;102732.19;2526373;34;113610;-58
2021/04/04 03:58:19;;;;;;;;;;;;;;;20.58;38.32;102732.69;2518068;34;113630;-57
2021/04/04 03:59:51;;;;;;;;;;;;;;;20.58;38.25;102731.88;2517295;34;113835;-58
2021/04/04 04:01:24;;;;;;;;;;;;;;;20.56;38.28;102723.72;2524353;34;113621;-58
2021/04/04 04:02:56;;;;;;;;;;;;;;;20.56;38.56;102731.28;2525828;34;113702;-57
2021/04/04 04:04:28;;;;;;;;;;;;;;;20.56;38.33;102726.50;2526575;34;113888;-58
2021/04/04 04:06:00;;;;;;;;;;;;;;;20.55;38.45;102736.03;2527489;34;113834;-58
2021/04/04 04:07:33;;;;;;;;;;;;;;;20.55;38.31;102730.44;2519752;34;113895;-58
2021/04/04 04:09:06;;;;;;;;;;;;;;;20.55;38.31;102723.97;2523940;34;115151;-58
2021/04/04 04:10:38;;;;;;;;;;;;;;;20.55;38.07;102733.25;2516836;34;115033;-58
2021/04/04 04:13:44;;;;;;;;;;;;;;;20.54;38.49;102727.88;2526315;34;115112;-58
2021/04/04 04:15:16;;;;;;;;;;;;;;;20.50;38.53;102724.75;2527283;34;114950;-58
2021/04/04 04:16:48;;;;;;;;;;;;;;;20.51;38.47;102723.66;2526047;34;114946;-57
2021/04/04 04:18:20;;;;;;;;;;;;;;;20.48;38.74;102727.00;2527104;34;114920;-58
2021/04/04 04:19:51;;;;;;;;;;;;;;;20.53;38.46;102724.25;2525561;34;113950;-58
2021/04/04 04:21:23;;;;;;;;;;;;;;;20.53;38.61;102714.97;2527235;34;115000;-58
2021/04/04 04:22:58;;;;;;;;;;;;;;;20.52;38.36;102713.28;2526276;34;115064;-57
2021/04/04 04:24:29;;;;;;;;;;;;;;;20.49;38.78;102714.63;2517146;34;115097;-58
2021/04/04 04:26:01;;;;;;;;;;;;;;;20.49;38.81;102711.00;2515372;34;115067;-57
2021/04/04 04:27:33;;;;;;;;;;;;;;;20.48;38.32;102707.34;2523262;34;114082;-57
2021/04/04 04:29:05;;;;;;;;;;;;;;;20.49;38.74;102709.00;2530488;34;115043;-58
2021/04/04 04:30:37;;;;;;;;;;;;;;;20.48;38.27;102714.91;2526017;34;115628;-58
2021/04/04 04:32:09;;;;;;;;;;;;;;;20.47;38.64;102714.06;2527095;34;115782;-58
2021/04/04 04:33:43;;;;;;;;;;;;;;;20.43;38.58;102710.09;2526154;34;115672;-58
2021/04/04 04:35:16;;;;;;;;;;;;;;;20.45;38.34;102719.09;2516691;34;114551;-59
2021/04/04 04:36:51;;;;;;;;;;;;;;;20.44;38.73;102722.19;2522818;34;116250;-59
2021/04/04 04:38:23;;;;;;;;;;;;;;;20.44;38.46;102714.63;2527260;34;115689;-57
2021/04/04 04:39:55;;;;;;;;;;;;;;;20.42;38.67;102711.22;2526141;34;115651;-59
2021/04/04 04:41:26;;;;;;;;;;;;;;;20.44;38.65;102711.81;2517180;34;115831;-59
2021/04/04 04:42:59;;;;;;;;;;;;;;;20.45;38.50;102707.84;2523514;34;115650;-58
2021/04/04 04:44:33;;;;;;;;;;;;;;;20.43;38.34;102707.28;2527001;34;115715;-59
2021/04/04 04:46:05;;;;;;;;;;;;;;;20.42;38.45;102699.97;2526954;34;115708;-59
2021/04/04 04:49:11;;;;;;;;;;;;;;;20.39;38.44;102697.72;2527316;34;115732;-59
2021/04/04 04:50:44;;;;;;;;;;;;;;;20.42;38.41;102695.22;2526322;34;115684;-59
2021/04/04 04:52:15;;;;;;;;;;;;;;;20.41;38.59;102696.31;2529891;34;115851;-58
2021/04/04 04:53:47;;;;;;;;;;;;;;;20.40;38.65;102683.38;2525857;34;113547;-59
2021/04/04 04:55:19;;;;;;;;;;;;;;;20.41;38.63;102687.91;2517846;34;113826;-59
2021/04/04 04:56:52;;;;;;;;;;;;;;;20.39;38.58;102686.47;2522818;34;113762;-58
2021/04/04 04:58:23;;;;;;;;;;;;;;;20.40;38.19;102688.16;2517474;34;113985;-58
2021/04/04 04:59:57;;;;;;;;;;;;;;;20.39;38.52;102692.94;2516735;34;114019;-59
2021/04/04 05:01:33;;;;;;;;;;;;;;;20.36;38.63;102682.22;2524126;34;113763;-59
2021/04/04 05:03:05;;;;;;;;;;;;;;;20.39;38.56;102692.09;2525560;34;113793;-59
2021/04/04 05:04:37;;;;;;;;;;;;;;;20.37;38.58;102688.69;2526404;34;113693;-58
2021/04/04 05:06:10;;;;;;;;;;;;;;;20.35;38.74;102690.94;2527026;34;113636;-58
2021/04/04 05:07:42;;;;;;;;;;;;;;;20.34;38.85;102697.66;2526082;34;113960;-58
2021/04/04 05:09:17;;;;;;;;;;;;;;;20.34;38.79;102700.47;2527273;34;113926;-58
2021/04/04 05:10:48;;;;;;;;;;;;;;;20.34;38.87;102700.47;2516847;34;114015;-58
2021/04/04 05:12:21;;;;;;;;;;;;;;;20.33;38.80;102702.41;2524482;34;113680;-58
2021/04/04 05:13:53;;;;;;;;;;;;;;;20.32;39.12;102697.91;2519979;34;113815;-59
2021/04/04 05:15:26;;;;;;;;;;;;;;;20.30;39.30;102702.94;2524215;34;115065;-58
2021/04/04 05:16:57;;;;;;;;;;;;;;;20.32;39.18;102697.06;2525889;34;115590;-58
2021/04/04 05:18:28;;;;;;;;;;;;;;;20.31;39.31;102696.19;2517534;34;114043;-58
2021/04/04 05:20:03;;;;;;;;;;;;;;;20.32;39.28;102697.06;2523052;34;115073;-59
2021/04/04 05:21:36;;;;;;;;;;;;;;;20.31;39.34;102690.59;2517804;34;115018;-58
2021/04/04 05:23:08;;;;;;;;;;;;;;;20.30;39.21;102697.34;2523235;34;115258;-59
2021/04/04 05:24:39;;;;;;;;;;;;;;;20.31;39.23;102696.19;2526518;34;114763;-58
2021/04/04 05:26:11;;;;;;;;;;;;;;;20.31;39.44;102695.34;2527428;34;115040;-59
2021/04/04 05:27:43;;;;;;;;;;;;;;;20.29;39.42;102690.00;2525457;34;115067;-59
2021/04/04 05:29:15;;;;;;;;;;;;;;;20.31;39.41;102687.78;2526730;34;115041;-58
2021/04/04 05:30:48;;;;;;;;;;;;;;;20.31;39.46;102696.19;2526127;34;115032;-58
2021/04/04 05:32:19;;;;;;;;;;;;;;;20.35;39.81;102697.38;2526951;34;115154;-58
2021/04/04 05:33:51;;;;;;;;;;;;;;;20.37;39.94;102694.31;2526078;34;115692;-59
2021/04/04 05:35:23;;;;;;;;;;;;;;;20.39;39.86;102690.13;2530257;34;114989;-58
2021/04/04 05:36:56;;;;;;;;;;;;;;;20.42;39.94;102691.56;2525378;34;115672;-57
2021/04/04 05:38:28;;;;;;;;;;;;;;;20.46;39.88;102694.66;2517395;34;115641;-59
2021/04/04 05:39:59;;;;;;;;;;;;;;;20.48;39.65;102695.25;2516602;34;115752;-59
2021/04/04 05:41:32;;;;;;;;;;;;;;;20.50;40.15;102693.03;2524217;34;115590;-59
2021/04/04 05:43:07;;;;;;;;;;;;;;;20.54;39.97;102688.56;2525926;34;114909;-58
2021/04/04 05:44:41;;;;;;;;;;;;;;;20.56;40.19;102690.00;2526836;34;115645;-58
2021/04/04 05:46:17;;;;;;;;;;;;;;;20.60;40.24;102693.97;2527151;34;115636;-58
2021/04/04 05:47:56;;;;;;;;;;;;;;;20.65;40.21;102694.03;2508304;34;116383;-59
2021/04/04 05:49:33;;;;;;;;;;;;;;;20.69;40.41;102695.19;2522690;34;115575;-59
2021/04/04 05:51:10;;;;;;;;;;;;;;;20.73;40.04;102690.72;2526397;34;114576;-59
2021/04/04 05:52:49;;;;;;;;;;;;;;;20.77;40.03;102688.22;2517558;34;115687;-58
2021/04/04 05:54:23;;;;;;;;;;;;;;;20.83;39.78;102695.59;2523746;34;115592;-59
2021/04/04 05:56:02;;;;;;;;;;;;;;;20.88;39.76;102687.22;2527014;34;116933;-59
2021/04/04 05:57:37;;;;;;;;;;;;;;;20.94;40.04;102699.34;2528956;34;115724;-58
2021/04/04 05:59:11;;;;;;;;;;;;;;;20.99;39.61;102690.91;2517915;34;113580;-58
2021/04/04 06:00:44;;;;;;;;;;;;;;;21.04;39.58;102693.78;2516660;34;113802;-59
2021/04/04 06:02:25;;;;;;;;;;;;;;;21.09;39.71;102693.81;2515708;34;114078;-58
2021/04/04 06:03:58;;;;;;;;;;;;;;;21.14;39.50;102694.75;2524672;34;113802;-59
2021/04/04 06:05:32;;;;;;;;;;;;;;;21.21;40.64;102697.34;2526350;34;113510;-59
2021/04/04 06:07:09;;;;;;;;;;;;;;;21.27;40.00;102701.84;2527445;34;113515;-60
2021/04/04 06:08:43;;;;;;;;;;;;;;;21.30;39.75;102693.72;2526844;34;113946;-58
2021/04/04 06:10:18;;;;;;;;;;;;;;;21.36;39.38;102702.19;2527736;34;113518;-60
2021/04/04 06:11:52;;;;;;;;;;;;;;;21.42;39.38;102698.28;2526804;34;113787;-58
2021/04/04 06:13:26;;;;;;;;;;;;;;;21.46;39.19;102696.63;2527447;34;113547;-59
2021/04/04 06:15:01;;;;;;;;;;;;;;;21.49;39.30;102691.31;2526712;34;113567;-58
2021/04/04 06:16:35;;;;;;;;;;;;;;;21.54;38.85;102694.16;2527493;34;113869;-57
2021/04/04 06:18:10;;;;;;;;;;;;;;;21.58;39.10;102686.84;2526676;34;114463;-58
2021/04/04 06:19:44;;;;;;;;;;;;;;;21.64;38.91;102687.72;2517897;34;113915;-59
2021/04/04 06:21:22;;;;;;;;;;;;;;;21.69;38.74;102684.94;2526971;34;113741;-57
2021/04/04 06:22:56;;;;;;;;;;;;;;;21.73;38.80;102689.75;2527289;34;114673;-58
2021/04/04 06:24:31;;;;;;;;;;;;;;;21.77;38.74;102690.03;2526471;34;115212;-57
2021/04/04 06:26:05;;;;;;;;;;;;;;;21.82;38.60;102692.88;2527466;34;115143;-58
2021/04/04 06:27:41;;;;;;;;;;;;;;;21.86;38.74;102676.28;2526681;34;116125;-59
2021/04/04 06:30:52;;;;;;;;;;;;;;;21.94;38.63;102678.63;2526264;34;115626;-59
2021/04/04 06:32:28;;;;;;;;;;;;;;;21.98;38.29;102683.44;2527249;34;115600;-59
2021/04/04 06:34:02;;;;;;;;;;;;;;;22.03;38.52;102679.78;2526559;34;115250;-58
2021/04/04 06:35:39;;;;;;;;;;;;;;;22.05;38.52;102674.69;2518254;34;115312;-58
2021/04/04 06:37:13;;;;;;;;;;;;;;;22.10;38.37;102669.09;2523333;34;115204;-59
2021/04/04 06:38:47;;;;;;;;;;;;;;;22.13;37.92;102668.53;2526828;34;116141;-59
2021/04/04 06:40:27;;;;;;;;;;;;;;;22.16;38.21;102666.03;2526625;34;115013;-59
2021/04/04 06:42:00;;;;;;;;;;;;;;;22.21;38.27;102665.19;2527574;34;115147;-59
2021/04/04 06:43:35;;;;;;;;;;;;;;;22.26;38.09;102661.53;2529574;34;115108;-59
2021/04/04 06:45:10;;;;;;;;;;;;;;;22.29;38.12;102656.19;2526976;34;115638;-57
2021/04/04 06:46:43;;;;;;;;;;;;;;;22.32;37.99;102652.81;2518277;34;115714;-59
2021/04/04 06:48:15;;;;;;;;;;;;;;;22.36;38.22;102656.75;2523839;34;115647;-59
2021/04/04 06:49:47;;;;;;;;;;;;;;;22.39;37.70;102649.72;2527417;34;116187;-58
2021/04/04 06:51:22;;;;;;;;;;;;;;;22.43;37.92;102650.84;2526484;34;116392;-59
2021/04/04 06:52:59;;;;;;;;;;;;;;;22.45;37.99;102649.44;2527144;34;115831;-57
2021/04/04 06:54:33;;;;;;;;;;;;;;;22.49;37.90;102646.91;2516958;34;115449;-58
2021/04/04 06:56:08;;;;;;;;;;;;;;;22.52;38.08;102641.56;2524855;34;116273;-58
2021/04/04 06:57:43;;;;;;;;;;;;;;;22.55;37.85;102649.47;2517312;34;115378;-58
2021/04/04 06:59:20;;;;;;;;;;;;;;;22.60;37.83;102640.16;2524795;34;115742;-58
2021/04/04 07:00:55;;;;;;;;;;;;;;;22.61;37.82;102639.88;2516857;34;115648;-58
2021/04/04 07:02:32;;;;;;;;;;;;;;;22.66;39.36;102636.22;2515703;34;115668;-59
2021/04/04 07:04:08;;;;;;;;;;;;;;;22.69;38.46;102632.84;2515070;34;115623;-58
2021/04/04 07:05:42;;;;;;;;;;;;;;;22.74;38.40;102634.84;2526751;34;115837;-59
2021/04/04 07:07:16;;;;;;;;;;;;;;;22.78;38.32;102638.78;2518087;34;113564;-57
2021/04/04 07:08:51;;;;;;;;;;;;;;;22.81;38.13;102638.19;2523408;34;114160;-58
2021/04/04 07:10:25;;;;;;;;;;;;;;;22.85;38.11;102633.72;2527563;34;113774;-57
2021/04/04 07:11:56;;;;;;;;;;;;;;;;;;2526622;34;113618;-59
2021/04/04 07:13:31;;;;;;;;;;;;;;;22.90;38.00;102628.91;2526595;34;128815;-57
2021/04/04 07:15:05;;;;;;;;;;;;;;;22.92;37.96;102635.09;2526823;34;114205;-59
2021/04/04 07:16:39;;;;;;;;;;;;;;;22.95;37.89;102626.06;2518153;34;113836;-57
2021/04/04 07:18:14;;;;;;;;;;;;;;;22.99;37.80;102623.53;2523840;34;113576;-58
2021/04/04 07:19:49;;;;;;;;;;;;;;;23.02;37.77;102631.44;2527441;34;113605;-58
2021/04/04 07:21:22;;;;;;;;;;;;;;;23.04;37.86;102637.63;2526718;34;113809;-58
2021/04/04 07:22:58;;;;;;;;;;;;;;;23.07;37.82;102631.44;2527250;34;113730;-58
2021/04/04 07:24:30;;;;;;;;;;;;;;;23.09;37.66;102637.59;2526284;34;114241;-59
2021/04/04 07:26:05;;;;;;;;;;;;;;;23.15;38.62;102641.28;2527292;34;113538;-59
2021/04/04 07:27:39;;;;;;;;;;;;;;;23.17;38.20;102631.38;2529626;34;113817;-57
2021/04/04 07:29:12;;;;;;;;;;;;;;;23.18;37.65;102632.22;2527259;34;115382;-56
2021/04/04 07:30:50;;;;;;;;;;;;;;;23.21;37.55;102634.50;2526514;34;114987;-58
2021/04/04 07:32:25;;;;;;;;;;;;;;;23.22;37.52;102636.16;2517967;34;115104;-59
2021/04/04 07:34:10;;;;;;;;;;;;;;;23.23;37.36;102630.25;2524283;34;115080;-58
2021/04/04 07:35:42;;;;;;;;;;;;;;;23.24;37.02;102637.59;2526855;34;115319;-59
2021/04/04 07:37:21;;;;;;;;;;;;;;;23.25;36.98;102630.81;2525514;34;115078;-58
2021/04/04 07:38:55;;;;;;;;;;;;;;;23.28;36.85;102630.25;2526556;34;115240;-57
2021/04/04 07:40:27;;;;;;;;;;;;;;;23.30;36.81;102633.63;2526058;34;115149;-59
2021/04/04 07:42:00;;;;;;;;;;;;;;;23.33;36.60;102633.03;2527407;34;114716;-57
2021/04/04 07:43:34;;;;;;;;;;;;;;;23.35;36.59;102627.94;2526472;34;115934;-59
2021/04/04 07:45:09;;;;;;;;;;;;;;;23.38;36.51;102627.38;2527357;34;115062;-58
2021/04/04 07:46:41;;;;;;;;;;;;;;;23.40;36.54;102624.25;2527121;34;115851;-58
2021/04/04 07:48:15;;;;;;;;;;;;;;;23.42;36.35;102622.84;2526235;34;115562;-58
2021/04/04 07:49:53;;;;;;;;;;;;;;;23.42;36.54;102620.03;2530161;34;114982;-58
2021/04/04 07:51:27;;;;;;;;;;;;;;;23.44;36.24;102619.75;2517059;34;115646;-59
2021/04/04 07:53:02;;;;;;;;;;;;;;;23.45;36.21;102613.00;2524735;34;115653;-58
2021/04/04 07:54:36;;;;;;;;;;;;;;;23.45;36.08;102616.66;2526200;34;116207;-58
2021/04/04 07:56:10;;;;;;;;;;;;;;;23.47;36.25;102617.25;2527328;34;115775;-59
2021/04/04 07:57:45;;;;;;;;;;;;;;;23.47;36.18;102614.41;2526147;34;116291;-59
2021/04/04 07:59:19;;;;;;;;;;;;;;;23.48;36.15;102620.91;2527356;34;116309;-59